Terminal Aerodrome Forecast
Issued by NWS

Home | Current Version | Previous Version | Text Only | Print | Product List | Glossary On
Versions: 1 2 3 4 5 6 7 8 9 10 11 12 13 14 15 16 17 18 19 20 21 22 23 24 25 26 27 28 29 30 31 32 33 34 35 36 37
448
FTUS44 KOHX 300550
TAFCKV
TAF
KCKV 300550Z 3006/3106 16005KT P6SM SCT250
     FM301000 16010KT P6SM SCT050 BKN250
     FM301200 18013G20KT 6SM -RA OVC025
     FM301400 19015G25KT P6SM BKN040
     FM302200 20015G25KT P6SM VCTS BKN035CB=

USA.gov is the U.S. government's official web portal to all federal, state and local government web resources and services.